createdAt,value
2018-12-12T00:04:55.321Z,14.87
2018-12-12T00:11:00.088Z,14.73
2018-12-12T00:17:05.207Z,14.77
2018-12-12T00:23:10.004Z,18.40
2018-12-12T00:29:14.875Z,14.13
2018-12-12T00:35:19.636Z,11.67
2018-12-12T00:41:24.289Z,12.53
2018-12-12T00:47:28.993Z,13.20
2018-12-12T00:53:33.688Z,13.90
2018-12-12T00:59:38.666Z,13.77
2018-12-12T01:05:43.337Z,14.90
2018-12-12T01:11:53.514Z,16.63
2018-12-12T01:17:58.273Z,12.40
2018-12-12T01:24:03.057Z,14.00
2018-12-12T01:30:07.902Z,15.20
2018-12-12T01:36:12.563Z,12.90
2018-12-12T01:42:17.279Z,14.37
2018-12-12T01:48:21.938Z,16.07
2018-12-12T01:54:26.666Z,12.30
2018-12-12T02:00:31.368Z,10.33
2018-12-12T02:06:36.169Z,8.93
2018-12-12T02:12:41.144Z,9.80
2018-12-12T02:18:46.902Z,12.07
2018-12-12T02:24:51.565Z,10.33
2018-12-12T02:30:56.973Z,9.20
2018-12-12T02:37:02.504Z,10.43
2018-12-12T02:43:07.197Z,11.20
2018-12-12T02:49:11.932Z,13.00
2018-12-12T02:55:16.741Z,12.30
2018-12-12T03:01:21.434Z,10.27
2018-12-12T03:07:26.097Z,9.70
2018-12-12T03:13:30.817Z,13.17
2018-12-12T03:19:35.474Z,11.57
2018-12-12T03:25:40.241Z,14.03
2018-12-12T03:31:44.965Z,10.30
2018-12-12T03:37:49.607Z,10.90
2018-12-12T03:43:54.306Z,12.17
2018-12-12T03:49:58.966Z,9.93
2018-12-12T03:56:03.661Z,12.57
2018-12-12T04:02:08.344Z,14.60
2018-12-12T04:08:13.205Z,9.57
2018-12-12T04:14:17.914Z,15.90
2018-12-12T04:20:22.585Z,13.10
2018-12-12T04:26:27.350Z,13.80
2018-12-12T04:32:32.051Z,11.43
2018-12-12T04:38:36.794Z,12.77
2018-12-12T04:44:41.653Z,13.47
2018-12-12T04:50:46.505Z,13.67
2018-12-12T04:56:51.204Z,12.80
2018-12-12T05:02:56.737Z,14.33
2018-12-12T05:09:01.414Z,12.73
2018-12-12T05:15:06.884Z,10.87
2018-12-12T05:21:11.761Z,14.37
2018-12-12T05:27:16.774Z,16.63
2018-12-12T05:33:21.554Z,16.73
2018-12-12T05:39:27.000Z,13.30
2018-12-12T05:45:31.706Z,13.30
2018-12-12T05:51:36.425Z,13.57
2018-12-12T05:57:41.386Z,19.73
2018-12-12T06:03:46.039Z,19.87
2018-12-12T06:09:51.128Z,15.27
2018-12-12T06:15:55.887Z,19.53
2018-12-12T06:22:00.771Z,13.83
2018-12-12T06:28:05.423Z,10.87
2018-12-12T06:34:10.165Z,16.70
2018-12-12T06:40:14.857Z,18.13
2018-12-12T06:46:19.558Z,16.47
2018-12-12T06:52:24.278Z,18.70
2018-12-12T06:58:29.191Z,19.67
2018-12-12T07:04:34.194Z,21.07
2018-12-12T07:10:38.889Z,15.27
2018-12-12T07:16:43.903Z,14.33
2018-12-12T07:22:49.002Z,19.73
2018-12-12T07:28:54.182Z,17.07
2018-12-12T07:34:59.357Z,15.43
2018-12-12T07:41:04.325Z,17.83
2018-12-12T07:47:09.513Z,14.07
2018-12-12T07:53:14.197Z,13.00
2018-12-12T07:59:18.981Z,12.63
2018-12-12T08:05:23.718Z,18.53
2018-12-12T08:11:28.489Z,15.70
2018-12-12T08:17:33.313Z,20.93
2018-12-12T08:23:38.382Z,22.30
2018-12-12T08:29:43.220Z,15.13
2018-12-12T08:35:47.999Z,18.17
2018-12-12T08:41:52.773Z,19.37
2018-12-12T08:47:57.614Z,14.30
2018-12-12T08:54:02.412Z,16.90
2018-12-12T09:00:07.810Z,21.90
2018-12-12T09:06:12.632Z,20.13
2018-12-12T09:12:17.313Z,20.13
2018-12-12T09:18:21.980Z,20.23
2018-12-12T09:24:28.042Z,19.43
2018-12-12T09:30:32.940Z,24.27
2018-12-12T09:36:37.659Z,21.87
2018-12-12T09:42:42.579Z,19.50
2018-12-12T09:48:49.463Z,19.40
2018-12-12T09:54:54.231Z,23.97
2018-12-12T10:00:58.991Z,20.50
2018-12-12T10:07:03.961Z,29.37
2018-12-12T10:13:09.202Z,25.40
2018-12-12T10:19:13.979Z,21.70
2018-12-12T10:25:18.798Z,21.47
2018-12-12T10:31:23.844Z,22.40
2018-12-12T10:37:28.546Z,18.10
2018-12-12T10:43:33.251Z,19.77
2018-12-12T10:49:38.045Z,21.73
2018-12-12T10:55:42.968Z,19.13
2018-12-12T11:01:47.716Z,19.27
2018-12-12T11:07:52.471Z,19.30
2018-12-12T11:13:57.428Z,16.93
2018-12-12T11:20:02.265Z,20.40
2018-12-12T11:26:06.961Z,15.77
2018-12-12T11:32:12.577Z,18.73
2018-12-12T11:38:17.661Z,21.90
2018-12-12T11:44:22.381Z,17.67
2018-12-12T11:50:27.240Z,19.80
2018-12-12T11:56:32.579Z,15.53
2018-12-12T12:02:37.522Z,17.00
2018-12-12T12:08:42.239Z,16.00
2018-12-12T12:14:47.065Z,14.30
2018-12-12T12:20:52.049Z,13.30
2018-12-12T12:26:56.948Z,12.33
2018-12-12T12:33:01.614Z,11.87
2018-12-12T12:39:09.061Z,14.73
2018-12-12T12:45:14.332Z,17.57
2018-12-12T12:51:19.156Z,35.30
2018-12-12T12:57:23.991Z,17.87
2018-12-12T13:03:28.828Z,17.20
2018-12-12T13:09:33.922Z,14.53
2018-12-12T13:15:39.219Z,18.17
2018-12-12T13:21:52.931Z,18.23
2018-12-12T13:27:57.672Z,17.77
2018-12-12T13:34:02.480Z,18.83
2018-12-12T13:40:08.297Z,25.13
2018-12-12T13:46:13.460Z,20.70
2018-12-12T13:52:18.181Z,20.00
2018-12-12T13:58:23.126Z,21.30
2018-12-12T14:04:28.052Z,21.20
2018-12-12T14:10:32.862Z,26.77
2018-12-12T14:16:37.630Z,23.40
2018-12-12T14:22:42.423Z,26.17
2018-12-12T14:28:47.237Z,21.57
2018-12-12T14:35:03.857Z,24.03
2018-12-12T14:41:29.169Z,25.43
2018-12-12T14:47:33.920Z,23.03
2018-12-12T14:53:39.073Z,23.93
2018-12-12T14:59:43.804Z,22.77
2018-12-12T15:05:49.304Z,21.43
2018-12-12T15:11:54.080Z,27.67
2018-12-12T15:17:59.006Z,23.17
2018-12-12T15:24:03.934Z,24.97
2018-12-12T15:30:08.965Z,22.10
2018-12-12T15:36:13.694Z,23.70
2018-12-12T15:42:18.636Z,21.53
2018-12-12T15:48:23.490Z,25.63
2018-12-12T15:54:28.320Z,23.73
2018-12-12T16:00:33.378Z,22.13
2018-12-12T16:06:38.205Z,24.70
2018-12-12T16:12:42.967Z,24.03
2018-12-12T16:18:47.677Z,23.10
2018-12-12T16:24:52.476Z,23.87
2018-12-12T16:30:57.272Z,30.27
2018-12-12T16:37:02.053Z,24.77
2018-12-12T16:43:06.829Z,25.53
2018-12-12T16:49:11.572Z,24.63
2018-12-12T16:55:16.289Z,21.97
2018-12-12T17:01:21.142Z,22.83
2018-12-12T17:07:25.892Z,25.07
2018-12-12T17:13:30.590Z,18.37
2018-12-12T17:19:35.471Z,17.67
2018-12-12T17:25:40.269Z,19.70
2018-12-12T17:31:45.173Z,19.67
2018-12-12T17:37:50.176Z,19.03
2018-12-12T17:43:55.451Z,16.70
2018-12-12T17:50:00.126Z,18.33
2018-12-12T17:56:05.076Z,15.60
2018-12-12T18:02:09.959Z,17.20
2018-12-12T18:08:14.649Z,18.80
2018-12-12T18:14:19.974Z,16.40
2018-12-12T18:20:24.823Z,17.53
2018-12-12T18:26:29.745Z,16.10
2018-12-12T18:32:34.631Z,16.07
2018-12-12T18:38:39.379Z,16.87
2018-12-12T18:44:44.129Z,15.50
2018-12-12T18:50:48.877Z,17.27
2018-12-12T18:56:53.645Z,18.87
2018-12-12T19:02:58.872Z,18.83
2018-12-12T19:09:04.416Z,20.27
2018-12-12T19:15:10.132Z,18.10
2018-12-12T19:21:15.706Z,18.37
2018-12-12T19:27:20.434Z,16.40
2018-12-12T19:33:25.541Z,15.77
2018-12-12T19:39:30.323Z,20.10
2018-12-12T19:45:35.244Z,22.27
2018-12-12T19:51:39.972Z,19.33
2018-12-12T19:57:44.994Z,17.70
2018-12-12T20:03:49.755Z,19.60
2018-12-12T20:09:54.696Z,17.20
2018-12-12T20:15:59.411Z,18.23
2018-12-12T20:22:04.356Z,18.17
2018-12-12T20:28:09.555Z,20.50
2018-12-12T20:34:14.790Z,23.50
2018-12-12T20:40:19.659Z,16.27
2018-12-12T20:46:24.773Z,17.13
2018-12-12T20:52:29.675Z,18.60
2018-12-12T20:58:34.557Z,17.40
2018-12-12T21:04:39.517Z,18.47
2018-12-12T21:10:44.695Z,17.87
2018-12-12T21:16:49.520Z,18.03
2018-12-12T21:22:56.276Z,18.13
2018-12-12T21:29:01.190Z,17.20
2018-12-12T21:35:07.582Z,16.40
2018-12-12T21:41:12.590Z,16.70
2018-12-12T21:47:17.637Z,15.30
2018-12-12T21:53:22.615Z,15.57
2018-12-12T21:59:27.542Z,16.83
2018-12-12T22:05:32.489Z,15.93
2018-12-12T22:11:37.328Z,15.93
2018-12-12T22:17:42.154Z,17.03
2018-12-12T22:23:47.311Z,15.90
2018-12-12T22:29:52.220Z,17.30
2018-12-12T22:35:57.059Z,16.90
2018-12-12T22:42:01.783Z,16.30
2018-12-12T22:48:06.810Z,17.67
2018-12-12T22:54:11.574Z,16.67
2018-12-12T23:00:21.567Z,16.53
2018-12-12T23:06:26.458Z,17.97
2018-12-12T23:12:31.196Z,16.53
2018-12-12T23:18:36.025Z,16.50
2018-12-12T23:24:40.785Z,16.03
2018-12-12T23:30:45.659Z,18.00
2018-12-12T23:36:50.560Z,16.47
2018-12-12T23:42:55.418Z,17.50
2018-12-12T23:49:00.532Z,17.37
2018-12-12T23:55:05.573Z,16.73
